Hovedside
METAR-TAF:

METAR-TAF

Lufthavner :

Curaçao internasjonale lufthavn

Curaçao, De nederlandske Antillene

breddegrad: 12-12N, lengdegrad: 068-58W, høyde over havet: 9 m

Gjeldene værobservasjon

Denne rapporten ble laget for 53 minutter siden, klokken 17:00 UTC
Vind 9 kt fra Øst
Temperatur 30°C
Luftfuktighet 70%
Trykk 1009 hPa
Sikt 10 km eller mer
Få skyer i en høyde av 2300 ft

METAR: TNCC 211700Z 08009KT 9999 FEW023 30/24 Q1009 NOSIG

Tid: 13:53 (17:53 UTC)

Varsel

Denne rapporten ble laget for 1 time og 53 minutter siden, klokken 16:00 UTC
Varsel gyldig fra 21. klokken 18 UTC til 22. klokken 18 UTC
Vind 10 kt fra Øst
Sikt 10 km eller mer
Spredte skyer i en høyde av 2000 ft
Midlertidig
fra 22. klokken 04 UTC til 22. klokken 16 UTC
Sikt: 7000 m
Brutte skyer i en høyde av 1500 ft
regnbyger

TAF: TNCC 211600Z 2118/2218 08010KT 9999 SCT020 TEMPO 2204/2216 7000 SHRA BKN015

Værobservasjoner og værvarsel for over 4000 flyplasser (METAR- og TAF-rapporter).

Tilgjengelige stasjoner er representert av de røde og gule prikkene på kartet.

Hold musepekeren over prikken for å se navnet på stasjonen.

Klikk så for å se værobservasjoner og -varsler.

For å forandre kartet kan du klikke på den grønne knappen med svart kryss for å zoome inn, på den grønne knappen med strek for å zoome ut, eller på de grønne pilene for å se tilstøtende kart.


METAR-TAF: